createdAt,value
2017-10-17T00:01:47.874Z,99.20
2017-10-17T00:04:16.132Z,99.20
2017-10-17T00:06:43.649Z,99.10
2017-10-17T00:09:11.187Z,99.30
2017-10-17T00:11:38.721Z,99.30
2017-10-17T00:14:06.217Z,99.00
2017-10-17T00:16:33.733Z,99.00
2017-10-17T00:19:01.233Z,98.90
2017-10-17T00:21:28.748Z,98.70
2017-10-17T00:23:56.249Z,98.20
2017-10-17T00:26:23.767Z,98.10
2017-10-17T00:28:51.273Z,98.10
2017-10-17T00:31:18.810Z,98.20
2017-10-17T00:33:47.081Z,98.30
2017-10-17T00:36:15.373Z,98.20
2017-10-17T00:38:43.620Z,98.10
2017-10-17T00:41:11.142Z,98.30
2017-10-17T00:43:38.659Z,98.30
2017-10-17T00:46:09.570Z,98.30
2017-10-17T00:48:37.065Z,98.20
2017-10-17T00:51:21.030Z,98.30
2017-10-17T00:53:48.541Z,98.20
2017-10-17T00:56:16.110Z,98.40
2017-10-17T00:58:43.654Z,98.10
2017-10-17T01:01:11.186Z,97.90
2017-10-17T01:03:38.706Z,97.80
2017-10-17T01:06:07.041Z,97.40
2017-10-17T01:08:34.537Z,97.40
2017-10-17T01:11:02.832Z,97.70
2017-10-17T01:13:30.333Z,97.70
2017-10-17T01:15:57.852Z,97.80
2017-10-17T01:18:26.085Z,98.00
2017-10-17T01:20:55.538Z,98.50
2017-10-17T01:23:41.497Z,98.50
2017-10-17T01:26:10.529Z,98.70
2017-10-17T01:28:38.030Z,98.70
2017-10-17T01:31:05.553Z,98.90
2017-10-17T01:33:33.047Z,98.90
2017-10-17T01:36:00.564Z,99.10
2017-10-17T01:38:33.421Z,99.20
2017-10-17T01:41:01.718Z,99.40
2017-10-17T01:43:29.227Z,99.40
2017-10-17T01:45:57.590Z,99.20
2017-10-17T01:48:25.897Z,99.50
2017-10-17T01:51:04.249Z,99.30
2017-10-17T01:53:38.178Z,99.40
2017-10-17T01:56:05.705Z,99.90
2017-10-17T01:58:36.678Z,99.40
2017-10-17T02:01:11.661Z,99.50
2017-10-17T02:03:39.156Z,99.70
2017-10-17T02:06:06.679Z,99.70
2017-10-17T02:08:34.190Z,99.90
2017-10-17T02:11:02.572Z,99.90
2017-10-17T02:13:30.068Z,99.90
2017-10-17T02:15:57.636Z,99.90
2017-10-17T02:18:27.056Z,99.90
2017-10-17T02:20:57.882Z,99.90
2017-10-17T02:23:35.309Z,99.90
2017-10-17T02:28:59.489Z,99.90
2017-10-17T02:31:28.582Z,99.90
2017-10-17T02:34:05.470Z,99.90
2017-10-17T02:36:33.001Z,99.90
2017-10-17T02:39:00.503Z,99.90
2017-10-17T02:41:28.026Z,99.90
2017-10-17T02:43:57.247Z,99.90
2017-10-17T02:46:25.546Z,99.90
2017-10-17T02:48:58.681Z,99.90
2017-10-17T02:51:26.224Z,99.90
2017-10-17T02:53:53.720Z,99.90
2017-10-17T02:56:21.237Z,99.90
2017-10-17T02:58:48.741Z,99.90
2017-10-17T03:01:22.844Z,99.90
2017-10-17T03:03:50.352Z,99.90
2017-10-17T03:06:17.890Z,99.90
2017-10-17T03:08:46.163Z,99.90
2017-10-17T03:11:15.960Z,99.90
2017-10-17T03:13:45.154Z,99.90
2017-10-17T03:16:12.690Z,99.90
2017-10-17T03:18:40.199Z,99.90
2017-10-17T03:24:16.067Z,99.90
2017-10-17T03:26:44.366Z,99.90
2017-10-17T03:29:11.864Z,99.90
2017-10-17T03:31:39.400Z,99.90
2017-10-17T03:34:10.646Z,99.90
2017-10-17T03:36:43.621Z,99.90
2017-10-17T03:39:11.121Z,99.90
2017-10-17T03:41:38.689Z,99.90
2017-10-17T03:44:10.601Z,99.90
2017-10-17T03:46:39.922Z,99.90
2017-10-17T03:49:09.942Z,99.90
2017-10-17T03:51:37.460Z,99.90
2017-10-17T03:54:11.170Z,99.90
2017-10-17T03:56:39.497Z,99.90
2017-10-17T03:59:09.709Z,99.90
2017-10-17T04:01:37.221Z,99.90
2017-10-17T04:04:08.308Z,99.90
2017-10-17T04:06:51.607Z,99.90
2017-10-17T04:09:19.876Z,99.90
2017-10-17T04:11:48.164Z,99.90
2017-10-17T04:14:38.076Z,99.90
2017-10-17T04:17:21.529Z,99.90
2017-10-17T04:19:53.603Z,99.90
2017-10-17T04:22:26.797Z,99.90
2017-10-17T04:25:04.813Z,99.90
2017-10-17T04:27:37.876Z,99.90
2017-10-17T04:30:16.077Z,99.90
2017-10-17T04:32:50.172Z,99.90
2017-10-17T04:35:18.399Z,99.90
2017-10-17T04:37:47.551Z,99.90
2017-10-17T04:40:25.901Z,99.90
2017-10-17T04:46:16.304Z,99.90
2017-10-17T04:48:56.253Z,99.90
2017-10-17T04:54:36.999Z,99.90
2017-10-17T04:57:06.293Z,99.90
2017-10-17T05:02:40.075Z,99.90
2017-10-17T05:05:19.170Z,99.90
2017-10-17T05:08:15.049Z,99.90
2017-10-17T05:10:43.280Z,99.90
2017-10-17T05:13:48.393Z,99.90
2017-10-17T05:16:20.288Z,99.90
2017-10-17T05:21:49.720Z,99.90
2017-10-17T05:24:36.016Z,99.90
2017-10-17T05:27:31.832Z,99.90
2017-10-17T05:30:12.749Z,99.90
2017-10-17T05:32:40.265Z,99.90
2017-10-17T05:35:07.786Z,99.90
2017-10-17T05:37:35.315Z,99.90
2017-10-17T05:40:18.639Z,99.90
2017-10-17T05:42:46.203Z,99.90
2017-10-17T05:45:14.620Z,99.90
2017-10-17T05:47:45.007Z,99.90
2017-10-17T05:50:15.176Z,99.90
2017-10-17T05:52:45.409Z,99.90
2017-10-17T05:55:13.688Z,99.90
2017-10-17T05:57:41.980Z,99.90
2017-10-17T06:00:09.486Z,99.90
2017-10-17T06:02:37.012Z,99.90
2017-10-17T06:05:04.743Z,99.90
2017-10-17T06:07:32.368Z,99.90
2017-10-17T06:10:00.300Z,99.90
2017-10-17T06:12:27.869Z,99.90
2017-10-17T06:14:55.509Z,99.90
2017-10-17T06:17:23.029Z,99.90
2017-10-17T06:19:50.544Z,99.90
2017-10-17T06:22:18.079Z,99.90
2017-10-17T06:24:46.364Z,99.90
2017-10-17T06:27:14.660Z,99.90
2017-10-17T06:29:42.165Z,99.90
2017-10-17T06:32:09.693Z,99.90
2017-10-17T06:34:37.210Z,99.90
2017-10-17T06:37:05.508Z,99.90
2017-10-17T06:39:33.018Z,99.90
2017-10-17T06:42:00.568Z,99.90
2017-10-17T06:44:28.076Z,99.90
2017-10-17T06:46:56.365Z,99.90
2017-10-17T06:49:23.877Z,99.90
2017-10-17T06:51:51.417Z,99.90
2017-10-17T06:54:18.925Z,99.90
2017-10-17T06:56:47.222Z,99.90
2017-10-17T06:59:14.727Z,99.90
2017-10-17T07:01:42.261Z,99.90
2017-10-17T07:04:09.764Z,99.90
2017-10-17T07:06:37.304Z,99.90
2017-10-17T07:09:04.797Z,99.90
2017-10-17T07:11:33.094Z,99.90
2017-10-17T07:14:01.373Z,99.80
2017-10-17T07:16:29.661Z,99.90
2017-10-17T07:18:57.170Z,99.80
2017-10-17T07:21:24.703Z,99.90
2017-10-17T07:23:52.217Z,99.40
2017-10-17T07:26:20.512Z,99.90
2017-10-17T07:28:48.018Z,99.90
2017-10-17T07:31:15.537Z,99.60
2017-10-17T07:33:43.042Z,99.00
2017-10-17T07:36:10.561Z,98.40
2017-10-17T07:38:38.066Z,98.90
2017-10-17T07:41:05.588Z,99.00
2017-10-17T07:43:33.086Z,98.70
2017-10-17T07:46:00.617Z,99.00
2017-10-17T07:48:28.140Z,99.00
2017-10-17T07:50:55.664Z,98.40
2017-10-17T07:53:23.169Z,99.10
2017-10-17T07:55:50.694Z,99.00
2017-10-17T07:58:18.193Z,98.50
2017-10-17T08:00:45.732Z,98.70
2017-10-17T08:03:14.024Z,98.50
2017-10-17T08:05:41.540Z,98.50
2017-10-17T08:08:09.283Z,98.10
2017-10-17T08:10:36.797Z,97.80
2017-10-17T08:13:05.079Z,97.60
2017-10-17T08:15:32.580Z,97.60
2017-10-17T08:18:00.098Z,97.60
2017-10-17T08:20:27.605Z,97.50
2017-10-17T08:22:55.134Z,97.10
2017-10-17T08:25:22.642Z,96.60
2017-10-17T08:27:50.156Z,96.60
2017-10-17T08:30:17.655Z,96.20
2017-10-17T08:32:45.178Z,96.10
2017-10-17T08:35:12.686Z,96.10
2017-10-17T08:37:40.204Z,96.00
2017-10-17T08:40:07.717Z,95.80
2017-10-17T08:42:36.012Z,95.80
2017-10-17T08:45:03.514Z,95.80
2017-10-17T08:47:31.033Z,95.50
2017-10-17T08:49:58.541Z,95.00
2017-10-17T08:52:26.074Z,94.50
2017-10-17T08:54:53.585Z,94.30
2017-10-17T08:57:21.112Z,94.40
2017-10-17T08:59:48.622Z,94.70
2017-10-17T09:02:16.914Z,94.90
2017-10-17T09:04:44.420Z,94.90
2017-10-17T09:07:11.955Z,95.10
2017-10-17T09:09:39.475Z,94.90
2017-10-17T09:12:07.768Z,96.60
2017-10-17T09:14:35.276Z,96.50
2017-10-17T09:17:02.798Z,97.70
2017-10-17T09:19:30.296Z,97.30
2017-10-17T09:21:57.814Z,97.30
2017-10-17T09:24:25.319Z,96.50
2017-10-17T09:26:52.850Z,96.70
2017-10-17T09:29:20.349Z,97.10
2017-10-17T09:31:47.872Z,96.20
2017-10-17T09:34:15.378Z,95.10
2017-10-17T09:36:43.675Z,95.70
2017-10-17T09:39:11.937Z,95.60
2017-10-17T09:41:40.224Z,95.50
2017-10-17T09:44:08.494Z,95.80
2017-10-17T09:46:36.776Z,96.00
2017-10-17T09:49:05.042Z,94.70
2017-10-17T09:51:32.558Z,94.60
2017-10-17T09:54:00.068Z,95.00
2017-10-17T09:56:28.362Z,95.00
2017-10-17T09:58:55.871Z,95.00
2017-10-17T10:01:23.398Z,95.80
2017-10-17T10:03:50.910Z,95.90
2017-10-17T10:06:18.438Z,95.80
2017-10-17T10:08:45.930Z,95.90
2017-10-17T10:11:13.456Z,95.10
2017-10-17T10:13:40.957Z,95.60
2017-10-17T10:16:09.244Z,95.10
2017-10-17T10:18:37.521Z,94.50
2017-10-17T10:21:05.060Z,94.40
2017-10-17T10:23:36.130Z,94.20
2017-10-17T10:26:04.423Z,94.30
2017-10-17T10:28:31.922Z,94.00
2017-10-17T10:30:59.462Z,93.50
2017-10-17T10:33:27.734Z,93.30
2017-10-17T10:35:55.264Z,93.20
2017-10-17T10:38:23.537Z,93.60
2017-10-17T10:40:51.832Z,93.90
2017-10-17T10:43:19.341Z,93.80
2017-10-17T10:45:46.861Z,94.10
2017-10-17T10:48:14.368Z,94.50
2017-10-17T10:50:41.897Z,94.60
2017-10-17T10:53:09.401Z,93.70
2017-10-17T10:55:37.694Z,93.40
2017-10-17T10:58:05.205Z,93.30
2017-10-17T11:00:32.728Z,93.60
2017-10-17T11:03:01.154Z,92.80
2017-10-17T11:05:28.676Z,92.60
2017-10-17T11:07:56.179Z,92.70
2017-10-17T11:10:23.709Z,92.40
2017-10-17T11:12:51.205Z,92.70
2017-10-17T11:15:18.729Z,92.30
2017-10-17T11:17:46.238Z,91.70
2017-10-17T11:20:14.534Z,92.00
2017-10-17T11:22:42.036Z,92.00
2017-10-17T11:25:09.560Z,93.00
2017-10-17T11:27:37.065Z,92.40
2017-10-17T11:30:04.592Z,92.00
2017-10-17T11:32:32.096Z,92.90
2017-10-17T11:34:59.626Z,92.70
2017-10-17T11:37:27.141Z,92.60
2017-10-17T11:39:55.612Z,92.90
2017-10-17T11:42:35.600Z,92.70
2017-10-17T11:45:03.124Z,92.70
2017-10-17T11:47:31.393Z,92.80
2017-10-17T11:49:58.918Z,92.80
2017-10-17T11:52:26.417Z,92.50
2017-10-17T11:54:54.713Z,91.90
2017-10-17T11:57:22.226Z,91.80
2017-10-17T11:59:49.759Z,91.40
2017-10-17T12:02:17.252Z,91.30
2017-10-17T12:04:44.782Z,91.10
2017-10-17T12:07:12.289Z,90.90
2017-10-17T12:09:39.814Z,90.60
2017-10-17T12:12:07.314Z,90.40
2017-10-17T12:14:35.610Z,90.90
2017-10-17T12:17:03.131Z,90.80
2017-10-17T12:19:30.658Z,91.00
2017-10-17T12:21:58.167Z,90.30
2017-10-17T12:24:26.464Z,91.00
2017-10-17T12:26:54.724Z,90.90
2017-10-17T12:29:23.056Z,90.80
2017-10-17T12:31:50.566Z,90.90
2017-10-17T12:34:18.855Z,91.20
2017-10-17T12:36:47.133Z,91.20
2017-10-17T12:39:15.415Z,91.60
2017-10-17T12:41:42.914Z,91.50
2017-10-17T12:44:10.434Z,91.50
2017-10-17T12:46:39.868Z,91.10
2017-10-17T12:49:07.467Z,90.50
2017-10-17T12:51:34.993Z,90.20
2017-10-17T12:54:04.450Z,90.70
2017-10-17T12:56:32.723Z,91.10
2017-10-17T12:59:01.002Z,91.20
2017-10-17T13:01:29.289Z,91.20
2017-10-17T13:03:56.802Z,91.10
2017-10-17T13:06:24.333Z,91.40
2017-10-17T13:08:51.848Z,91.70
2017-10-17T13:11:19.366Z,91.90
2017-10-17T13:13:50.042Z,91.60
2017-10-17T13:16:17.586Z,92.10
2017-10-17T13:18:45.139Z,91.40
2017-10-17T13:21:12.674Z,91.40
2017-10-17T13:23:40.186Z,91.50
2017-10-17T13:26:07.786Z,91.70
2017-10-17T13:28:35.286Z,91.60
2017-10-17T13:31:02.818Z,91.40
2017-10-17T13:33:30.331Z,91.50
2017-10-17T13:35:58.629Z,91.90
2017-10-17T13:38:26.138Z,91.90
2017-10-17T13:40:53.790Z,90.80
2017-10-17T13:43:31.677Z,91.00
2017-10-17T13:45:59.199Z,91.10
2017-10-17T13:48:28.165Z,91.70
2017-10-17T13:50:55.698Z,91.60
2017-10-17T13:53:33.597Z,92.00
2017-10-17T13:56:01.120Z,92.10
2017-10-17T13:58:29.398Z,92.30
2017-10-17T14:00:56.930Z,92.30
2017-10-17T14:03:24.452Z,92.30
2017-10-17T14:05:51.981Z,92.30
2017-10-17T14:08:19.490Z,91.90
2017-10-17T14:10:47.013Z,91.40
2017-10-17T14:13:14.530Z,91.50
2017-10-17T14:15:42.062Z,91.60
2017-10-17T14:18:09.585Z,91.80
2017-10-17T14:20:37.121Z,91.50
2017-10-17T14:23:05.405Z,90.80
2017-10-17T14:25:33.693Z,91.10
2017-10-17T14:28:01.193Z,91.10
2017-10-17T14:30:28.718Z,91.20
2017-10-17T14:32:56.232Z,91.30
2017-10-17T14:35:23.749Z,91.10
2017-10-17T14:37:51.258Z,91.20
2017-10-17T14:40:18.793Z,90.90
2017-10-17T14:42:53.617Z,91.10
2017-10-17T14:45:23.071Z,91.00
2017-10-17T14:47:51.355Z,91.10
2017-10-17T14:50:19.642Z,91.30
2017-10-17T14:52:47.912Z,91.30
2017-10-17T14:55:16.196Z,90.80
2017-10-17T14:57:44.462Z,91.40
2017-10-17T15:00:12.749Z,90.90
2017-10-17T15:02:40.261Z,90.80
2017-10-17T15:05:07.851Z,91.40
2017-10-17T15:07:36.155Z,90.90
2017-10-17T15:10:03.752Z,90.80
2017-10-17T15:12:31.267Z,91.20
2017-10-17T15:14:58.797Z,91.30
2017-10-17T15:17:26.324Z,91.40
2017-10-17T15:19:53.920Z,91.70
2017-10-17T15:22:22.701Z,92.10
2017-10-17T15:24:51.029Z,92.20
2017-10-17T15:27:18.534Z,92.20
2017-10-17T15:29:46.064Z,92.10
2017-10-17T15:32:13.565Z,92.40
2017-10-17T15:34:41.099Z,92.70
2017-10-17T15:37:08.609Z,92.40
2017-10-17T15:39:36.901Z,93.40
2017-10-17T15:42:05.346Z,93.30
2017-10-17T15:44:32.872Z,93.10
2017-10-17T15:47:00.378Z,93.90
2017-10-17T15:49:28.676Z,95.20
2017-10-17T15:51:56.185Z,95.10
2017-10-17T15:54:23.777Z,95.80
2017-10-17T15:56:52.063Z,97.10
2017-10-17T15:59:20.362Z,97.60
2017-10-17T16:01:47.862Z,97.60
2017-10-17T16:04:15.388Z,98.10
2017-10-17T16:06:42.889Z,96.70
2017-10-17T16:09:10.413Z,98.10
2017-10-17T16:11:37.913Z,99.00
2017-10-17T16:14:05.445Z,98.70
2017-10-17T16:16:32.951Z,99.50
2017-10-17T16:19:01.253Z,99.70
2017-10-17T16:21:28.762Z,99.60
2017-10-17T16:23:56.285Z,99.90
2017-10-17T16:26:23.838Z,99.90
2017-10-17T16:28:51.385Z,99.90
2017-10-17T16:31:18.904Z,99.90
2017-10-17T16:33:46.423Z,99.90
2017-10-17T16:36:13.929Z,99.90
2017-10-17T16:38:41.453Z,99.90
2017-10-17T16:41:09.720Z,99.90
2017-10-17T16:43:37.242Z,99.90
2017-10-17T16:46:05.507Z,99.90
2017-10-17T16:48:33.026Z,99.90
2017-10-17T16:51:00.534Z,99.90
2017-10-17T16:53:28.820Z,99.90
2017-10-17T16:55:57.089Z,99.90
2017-10-17T16:58:25.380Z,99.90
2017-10-17T17:00:52.890Z,99.90
2017-10-17T17:03:20.414Z,99.90
2017-10-17T17:05:47.917Z,99.90
2017-10-17T17:08:15.446Z,99.90
2017-10-17T17:10:42.958Z,99.90
2017-10-17T17:13:10.481Z,99.90
2017-10-17T17:15:37.990Z,99.90
2017-10-17T17:18:06.285Z,99.90
2017-10-17T17:20:33.785Z,99.90
2017-10-17T17:23:01.310Z,99.90
2017-10-17T17:25:28.814Z,99.90
2017-10-17T17:27:56.346Z,99.90
2017-10-17T17:30:23.850Z,99.90
2017-10-17T17:32:51.383Z,99.90
2017-10-17T17:35:18.893Z,99.90
2017-10-17T17:37:46.426Z,99.90
2017-10-17T17:40:13.933Z,99.90
2017-10-17T17:42:41.457Z,99.90
2017-10-17T17:45:09.737Z,99.90
2017-10-17T17:47:38.034Z,99.90
2017-10-17T17:50:05.542Z,99.90
2017-10-17T17:52:33.066Z,99.90
2017-10-17T17:55:00.589Z,99.90
2017-10-17T17:57:28.878Z,99.90
2017-10-17T17:59:57.149Z,99.90
2017-10-17T18:02:25.462Z,99.90
2017-10-17T18:04:55.976Z,99.90
2017-10-17T18:07:23.510Z,99.90
2017-10-17T18:09:51.014Z,99.90
2017-10-17T18:12:18.551Z,99.90
2017-10-17T18:14:46.820Z,99.90
2017-10-17T18:17:15.129Z,99.90
2017-10-17T18:19:42.629Z,99.90
2017-10-17T18:22:10.157Z,99.90
2017-10-17T18:24:37.667Z,99.90
2017-10-17T18:27:05.960Z,99.90
2017-10-17T18:29:33.505Z,99.90
2017-10-17T18:32:01.055Z,99.90
2017-10-17T18:34:28.610Z,99.90
2017-10-17T18:36:56.133Z,99.90
2017-10-17T18:39:23.699Z,99.90
2017-10-17T18:41:51.233Z,99.90
2017-10-17T18:44:18.751Z,99.90
2017-10-17T18:46:46.281Z,99.90
2017-10-17T18:49:13.789Z,99.90
2017-10-17T18:51:42.098Z,99.90
2017-10-17T18:54:09.605Z,99.90
2017-10-17T18:56:37.132Z,99.90
2017-10-17T18:59:04.650Z,99.90
2017-10-17T19:01:33.033Z,99.90
2017-10-17T19:04:07.640Z,99.90
2017-10-17T19:06:35.189Z,99.90
2017-10-17T19:09:02.709Z,99.90
2017-10-17T19:11:30.270Z,99.90
2017-10-17T19:13:58.696Z,99.90
2017-10-17T19:16:26.221Z,99.90
2017-10-17T19:18:53.727Z,99.90
2017-10-17T19:21:22.166Z,99.90
2017-10-17T19:23:49.670Z,99.90
2017-10-17T19:26:17.945Z,99.90
2017-10-17T19:28:46.237Z,99.90
2017-10-17T19:31:13.786Z,99.90
2017-10-17T19:33:42.080Z,99.90
2017-10-17T19:36:09.613Z,99.90
2017-10-17T19:38:37.141Z,99.90
2017-10-17T19:41:04.644Z,99.90
2017-10-17T19:43:32.949Z,99.90
2017-10-17T19:46:00.465Z,99.90
2017-10-17T19:48:28.012Z,99.90
2017-10-17T19:50:55.512Z,99.90
2017-10-17T19:53:23.049Z,99.90
2017-10-17T19:55:50.556Z,99.90
2017-10-17T19:58:18.073Z,99.90
2017-10-17T20:00:47.085Z,99.90
2017-10-17T20:03:14.647Z,99.90
2017-10-17T20:05:42.920Z,99.90
2017-10-17T20:08:11.222Z,99.90
2017-10-17T20:10:38.728Z,99.90
2017-10-17T20:13:06.313Z,99.90
2017-10-17T20:15:34.626Z,99.90
2017-10-17T20:18:02.162Z,99.90
2017-10-17T20:20:30.428Z,99.90
2017-10-17T20:22:59.731Z,99.90
2017-10-17T20:25:28.002Z,99.90
2017-10-17T20:27:56.309Z,99.90
2017-10-17T20:30:23.830Z,99.90
2017-10-17T20:32:51.371Z,99.90
2017-10-17T20:35:18.901Z,99.90
2017-10-17T20:37:46.433Z,99.90
2017-10-17T20:40:13.991Z,99.90
2017-10-17T20:42:41.600Z,99.90
2017-10-17T20:45:09.109Z,99.90
2017-10-17T20:47:38.578Z,99.90
2017-10-17T20:50:06.090Z,99.90
2017-10-17T20:52:35.366Z,99.90
2017-10-17T20:55:03.649Z,99.90
2017-10-17T20:57:31.941Z,99.90
2017-10-17T20:59:59.449Z,99.90
2017-10-17T21:02:27.391Z,99.90
2017-10-17T21:04:55.739Z,99.90
2017-10-17T21:07:23.282Z,99.90
2017-10-17T21:09:51.049Z,99.90
2017-10-17T21:12:18.638Z,99.90
2017-10-17T21:14:46.165Z,99.90
2017-10-17T21:17:14.219Z,99.90
2017-10-17T21:19:41.753Z,99.90
2017-10-17T21:22:09.277Z,99.90
2017-10-17T21:24:36.801Z,99.90
2017-10-17T21:27:04.467Z,99.90
2017-10-17T21:29:31.975Z,99.90
2017-10-17T21:31:59.512Z,99.90
2017-10-17T21:34:27.868Z,99.90
2017-10-17T21:36:55.504Z,99.90
2017-10-17T21:39:23.029Z,99.90
2017-10-17T21:41:50.701Z,99.90
2017-10-17T21:44:18.205Z,99.90
2017-10-17T21:46:45.733Z,99.90
2017-10-17T21:49:13.281Z,99.90
2017-10-17T21:51:40.818Z,99.90
2017-10-17T21:54:09.098Z,99.90
2017-10-17T21:56:36.628Z,99.90
2017-10-17T21:59:04.129Z,99.90
2017-10-17T22:01:31.654Z,99.90
2017-10-17T22:03:59.172Z,99.90
2017-10-17T22:06:26.692Z,99.90
2017-10-17T22:08:54.213Z,99.90
2017-10-17T22:11:21.750Z,99.90
2017-10-17T22:13:49.253Z,99.90
2017-10-17T22:16:17.570Z,99.90
2017-10-17T22:18:45.091Z,99.90
2017-10-17T22:21:12.849Z,99.90
2017-10-17T22:23:40.363Z,99.90
2017-10-17T22:26:07.890Z,99.90
2017-10-17T22:28:36.161Z,99.90
2017-10-17T22:31:04.455Z,99.90
2017-10-17T22:33:32.729Z,99.90
2017-10-17T22:36:01.025Z,99.90
2017-10-17T22:38:28.543Z,99.90
2017-10-17T22:40:56.045Z,99.90
2017-10-17T22:43:23.577Z,99.90
2017-10-17T22:45:51.852Z,99.90
2017-10-17T22:48:20.159Z,99.90
2017-10-17T22:50:47.669Z,99.90
2017-10-17T22:53:15.188Z,99.90
2017-10-17T22:55:42.693Z,99.90
2017-10-17T22:58:10.221Z,99.90
2017-10-17T23:00:37.742Z,99.90
2017-10-17T23:03:06.031Z,99.90
2017-10-17T23:05:33.608Z,99.90
2017-10-17T23:08:01.143Z,99.90
2017-10-17T23:10:28.648Z,99.90
2017-10-17T23:12:56.164Z,99.90
2017-10-17T23:15:23.686Z,99.90
2017-10-17T23:18:03.770Z,99.90
2017-10-17T23:20:37.614Z,99.90
2017-10-17T23:23:05.154Z,99.90
2017-10-17T23:25:32.679Z,99.90
2017-10-17T23:28:01.002Z,99.90
2017-10-17T23:30:28.514Z,99.90
2017-10-17T23:32:56.053Z,99.90
2017-10-17T23:35:23.572Z,99.90
2017-10-17T23:37:51.105Z,99.90
2017-10-17T23:40:19.386Z,99.90
2017-10-17T23:42:47.685Z,99.90
2017-10-17T23:45:15.194Z,99.90
2017-10-17T23:47:42.730Z,99.90
2017-10-17T23:50:10.241Z,99.90
2017-10-17T23:52:38.541Z,99.90
2017-10-17T23:55:06.057Z,99.90
2017-10-17T23:57:33.581Z,99.90
